Terminal Aerodrome Forecast
Issued by NWS Jackson, MS

Home | Current Version | Previous Version | Text Only | Print | Product List | Glossary On
Versions: 1 2 3 4 5 6 7 8 9 10 11 12 13 14 15
427
FTUS44 KJAN 292129 AAA
TAFHBG
TAF AMD
KHBG 292129Z 2921/3018 VRB03KT P6SM SCT120
     FM300000 00000KT P6SM SCT150
     FM301100 19001KT 4SM BR SKC
     FM301300 28004KT P6SM FEW030=

USA.gov is the U.S. government's official web portal to all federal, state and local government web resources and services.